sensor_id;sensor_type;location;lat;lon;timestamp;temperature;humidity
34201;DHT22;20469;55.638;37.670;2022-12-29T00:00:11;1.00;99.90
34201;DHT22;20469;55.638;37.670;2022-12-29T00:02:39;1.00;99.90
34201;DHT22;20469;55.638;37.670;2022-12-29T00:05:07;0.90;99.90
34201;DHT22;20469;55.638;37.670;2022-12-29T00:07:34;0.80;99.90
34201;DHT22;20469;55.638;37.670;2022-12-29T00:10:02;0.90;99.90
34201;DHT22;20469;55.638;37.670;2022-12-29T00:12:29;0.90;99.90
34201;DHT22;20469;55.638;37.670;2022-12-29T00:15:16;0.90;99.90
34201;DHT22;20469;55.638;37.670;2022-12-29T00:18:02;0.90;99.90
34201;DHT22;20469;55.638;37.670;2022-12-29T00:20:29;1.00;99.90
34201;DHT22;20469;55.638;37.670;2022-12-29T00:23:18;0.80;99.90
34201;DHT22;20469;55.638;37.670;2022-12-29T00:26:05;0.10;99.90
34201;DHT22;20469;55.638;37.670;2022-12-29T00:28:54;0.70;99.90
34201;DHT22;20469;55.638;37.670;2022-12-29T00:31:40;1.50;99.90
34201;DHT22;20469;55.638;37.670;2022-12-29T00:34:26;0.60;99.90
34201;DHT22;20469;55.638;37.670;2022-12-29T00:37:12;0.70;99.90
34201;DHT22;20469;55.638;37.670;2022-12-29T00:39:39;0.40;99.90
34201;DHT22;20469;55.638;37.670;2022-12-29T00:42:25;0.30;99.90
34201;DHT22;20469;55.638;37.670;2022-12-29T00:45:11;0.20;99.90
34201;DHT22;20469;55.638;37.670;2022-12-29T00:47:38;0.40;99.90
34201;DHT22;20469;55.638;37.670;2022-12-29T00:50:06;0.30;99.90
34201;DHT22;20469;55.638;37.670;2022-12-29T00:52:33;0.30;99.90
34201;DHT22;20469;55.638;37.670;2022-12-29T00:55:01;0.10;99.90
34201;DHT22;20469;55.638;37.670;2022-12-29T00:57:29;0.20;99.90
34201;DHT22;20469;55.638;37.670;2022-12-29T00:59:56;0.20;99.90
34201;DHT22;20469;55.638;37.670;2022-12-29T01:02:23;0.20;99.90
34201;DHT22;20469;55.638;37.670;2022-12-29T01:04:51;0.40;99.90
34201;DHT22;20469;55.638;37.670;2022-12-29T01:07:18;0.40;99.90
34201;DHT22;20469;55.638;37.670;2022-12-29T01:09:45;0.30;99.90
34201;DHT22;20469;55.638;37.670;2022-12-29T01:12:33;0.30;99.90
34201;DHT22;20469;55.638;37.670;2022-12-29T01:15:09;0.00;99.90
34201;DHT22;20469;55.638;37.670;2022-12-29T01:17:37;0.00;99.90
34201;DHT22;20469;55.638;37.670;2022-12-29T01:20:05;0.00;99.90
34201;DHT22;20469;55.638;37.670;2022-12-29T01:22:32;0.20;99.90
34201;DHT22;20469;55.638;37.670;2022-12-29T01:25:00;0.00;99.90
34201;DHT22;20469;55.638;37.670;2022-12-29T01:27:27;0.00;99.90
34201;DHT22;20469;55.638;37.670;2022-12-29T01:29:54;-0.10;99.90
34201;DHT22;20469;55.638;37.670;2022-12-29T01:32:22;0.00;99.90
34201;DHT22;20469;55.638;37.670;2022-12-29T01:34:49;0.00;99.90
34201;DHT22;20469;55.638;37.670;2022-12-29T01:37:16;0.10;99.90
34201;DHT22;20469;55.638;37.670;2022-12-29T01:39:43;0.10;99.90
34201;DHT22;20469;55.638;37.670;2022-12-29T01:42:23;0.30;99.90
34201;DHT22;20469;55.638;37.670;2022-12-29T01:45:12;0.10;99.90
34201;DHT22;20469;55.638;37.670;2022-12-29T01:50:26;0.00;99.90
34201;DHT22;20469;55.638;37.670;2022-12-29T01:53:04;0.00;99.90
34201;DHT22;20469;55.638;37.670;2022-12-29T01:55:40;-0.10;99.90
34201;DHT22;20469;55.638;37.670;2022-12-29T01:58:11;0.00;99.90
34201;DHT22;20469;55.638;37.670;2022-12-29T02:00:40;-0.10;99.90
34201;DHT22;20469;55.638;37.670;2022-12-29T02:03:08;0.00;99.90
34201;DHT22;20469;55.638;37.670;2022-12-29T02:08:24;0.10;99.90
34201;DHT22;20469;55.638;37.670;2022-12-29T02:10:53;-0.10;99.90
34201;DHT22;20469;55.638;37.670;2022-12-29T02:13:24;0.00;99.90
34201;DHT22;20469;55.638;37.670;2022-12-29T02:21:51;0.10;99.90
34201;DHT22;20469;55.638;37.670;2022-12-29T02:30:01;0.20;99.90
34201;DHT22;20469;55.638;37.670;2022-12-29T02:32:47;0.20;99.90
34201;DHT22;20469;55.638;37.670;2022-12-29T02:38:34;-0.10;99.90
34201;DHT22;20469;55.638;37.670;2022-12-29T02:41:33;0.20;99.90
34201;DHT22;20469;55.638;37.670;2022-12-29T02:49:34;-0.40;99.90
34201;DHT22;20469;55.638;37.670;2022-12-29T02:54:33;-0.30;99.90
34201;DHT22;20469;55.638;37.670;2022-12-29T02:57:29;-0.10;99.90
34201;DHT22;20469;55.638;37.670;2022-12-29T03:00:04;-0.30;99.90
34201;DHT22;20469;55.638;37.670;2022-12-29T03:05:17;-0.10;99.90
34201;DHT22;20469;55.638;37.670;2022-12-29T03:10:41;-0.10;99.90
34201;DHT22;20469;55.638;37.670;2022-12-29T03:13:44;-0.20;99.90
34201;DHT22;20469;55.638;37.670;2022-12-29T03:16:57;-0.30;99.90
34201;DHT22;20469;55.638;37.670;2022-12-29T03:19:35;-0.10;99.90
34201;DHT22;20469;55.638;37.670;2022-12-29T03:22:12;-0.20;99.90
34201;DHT22;20469;55.638;37.670;2022-12-29T03:25:05;-0.10;99.90
34201;DHT22;20469;55.638;37.670;2022-12-29T03:27:53;-0.20;99.90
34201;DHT22;20469;55.638;37.670;2022-12-29T03:30:23;0.10;99.90
34201;DHT22;20469;55.638;37.670;2022-12-29T03:32:54;-0.10;99.90
34201;DHT22;20469;55.638;37.670;2022-12-29T03:35:25;-0.40;99.90
34201;DHT22;20469;55.638;37.670;2022-12-29T03:40:49;-0.70;99.90
34201;DHT22;20469;55.638;37.670;2022-12-29T03:43:18;-0.70;99.90
34201;DHT22;20469;55.638;37.670;2022-12-29T03:45:45;-0.40;99.90
34201;DHT22;20469;55.638;37.670;2022-12-29T03:48:13;-0.40;99.90
34201;DHT22;20469;55.638;37.670;2022-12-29T03:50:40;-0.40;99.90
34201;DHT22;20469;55.638;37.670;2022-12-29T03:53:07;-0.50;99.90
34201;DHT22;20469;55.638;37.670;2022-12-29T03:55:34;-0.70;99.90
34201;DHT22;20469;55.638;37.670;2022-12-29T03:58:01;-0.70;99.90
34201;DHT22;20469;55.638;37.670;2022-12-29T04:00:29;-0.70;99.90
34201;DHT22;20469;55.638;37.670;2022-12-29T04:02:56;-0.80;99.90
34201;DHT22;20469;55.638;37.670;2022-12-29T04:05:23;-0.90;99.90
34201;DHT22;20469;55.638;37.670;2022-12-29T04:07:50;-1.00;99.90
34201;DHT22;20469;55.638;37.670;2022-12-29T04:10:18;-1.00;99.90
34201;DHT22;20469;55.638;37.670;2022-12-29T04:12:45;-1.00;99.90
34201;DHT22;20469;55.638;37.670;2022-12-29T04:15:13;-1.00;99.90
34201;DHT22;20469;55.638;37.670;2022-12-29T04:17:40;-0.90;99.90
34201;DHT22;20469;55.638;37.670;2022-12-29T04:20:08;-0.90;99.90
34201;DHT22;20469;55.638;37.670;2022-12-29T04:23:02;-0.80;99.90
34201;DHT22;20469;55.638;37.670;2022-12-29T04:25:33;-0.70;99.90
34201;DHT22;20469;55.638;37.670;2022-12-29T04:28:01;-0.80;99.90
34201;DHT22;20469;55.638;37.670;2022-12-29T04:30:28;-1.00;99.90
34201;DHT22;20469;55.638;37.670;2022-12-29T04:32:55;-0.90;99.90
34201;DHT22;20469;55.638;37.670;2022-12-29T04:35:23;-0.70;99.90
34201;DHT22;20469;55.638;37.670;2022-12-29T04:37:50;-0.90;99.90
34201;DHT22;20469;55.638;37.670;2022-12-29T04:40:17;-1.00;99.90
34201;DHT22;20469;55.638;37.670;2022-12-29T04:42:44;-1.00;99.90
34201;DHT22;20469;55.638;37.670;2022-12-29T04:45:11;-0.90;99.90
34201;DHT22;20469;55.638;37.670;2022-12-29T04:47:38;-0.80;99.90
34201;DHT22;20469;55.638;37.670;2022-12-29T04:50:06;-1.20;99.90
34201;DHT22;20469;55.638;37.670;2022-12-29T04:52:33;-1.10;99.90
34201;DHT22;20469;55.638;37.670;2022-12-29T04:55:01;-1.00;99.90
34201;DHT22;20469;55.638;37.670;2022-12-29T04:57:29;-1.20;99.90
34201;DHT22;20469;55.638;37.670;2022-12-29T04:59:56;-1.20;99.90
34201;DHT22;20469;55.638;37.670;2022-12-29T05:02:24;-1.20;99.90
34201;DHT22;20469;55.638;37.670;2022-12-29T05:04:51;-1.10;99.90
34201;DHT22;20469;55.638;37.670;2022-12-29T05:07:18;-1.20;99.90
34201;DHT22;20469;55.638;37.670;2022-12-29T05:09:45;-1.20;99.90
34201;DHT22;20469;55.638;37.670;2022-12-29T05:12:13;-1.10;99.90
34201;DHT22;20469;55.638;37.670;2022-12-29T05:14:40;-1.20;99.90
34201;DHT22;20469;55.638;37.670;2022-12-29T05:17:07;-1.10;99.90
34201;DHT22;20469;55.638;37.670;2022-12-29T05:19:34;-0.90;99.90
34201;DHT22;20469;55.638;37.670;2022-12-29T05:22:01;-0.90;99.90
34201;DHT22;20469;55.638;37.670;2022-12-29T05:24:32;-1.00;99.90
34201;DHT22;20469;55.638;37.670;2022-12-29T05:26:59;-0.90;99.90
34201;DHT22;20469;55.638;37.670;2022-12-29T05:29:26;-1.10;99.90
34201;DHT22;20469;55.638;37.670;2022-12-29T05:31:53;-1.10;99.90
34201;DHT22;20469;55.638;37.670;2022-12-29T05:34:20;-1.20;99.90
34201;DHT22;20469;55.638;37.670;2022-12-29T05:36:48;-1.20;99.90
34201;DHT22;20469;55.638;37.670;2022-12-29T05:39:15;-1.30;99.90
34201;DHT22;20469;55.638;37.670;2022-12-29T05:41:42;-1.20;99.90
34201;DHT22;20469;55.638;37.670;2022-12-29T05:44:10;-1.40;99.90
34201;DHT22;20469;55.638;37.670;2022-12-29T05:46:38;-1.30;99.90
34201;DHT22;20469;55.638;37.670;2022-12-29T05:49:05;-1.30;99.90
34201;DHT22;20469;55.638;37.670;2022-12-29T05:51:33;-1.00;99.90
34201;DHT22;20469;55.638;37.670;2022-12-29T05:54:00;-1.10;99.90
34201;DHT22;20469;55.638;37.670;2022-12-29T05:56:27;-1.00;99.90
34201;DHT22;20469;55.638;37.670;2022-12-29T05:58:54;-1.10;99.90
34201;DHT22;20469;55.638;37.670;2022-12-29T06:01:21;-1.10;99.90
34201;DHT22;20469;55.638;37.670;2022-12-29T06:03:49;-1.30;99.90
34201;DHT22;20469;55.638;37.670;2022-12-29T06:06:16;-1.10;99.90
34201;DHT22;20469;55.638;37.670;2022-12-29T06:08:43;-1.20;99.90
34201;DHT22;20469;55.638;37.670;2022-12-29T06:11:11;-1.20;99.90
34201;DHT22;20469;55.638;37.670;2022-12-29T06:13:38;-1.10;99.90
34201;DHT22;20469;55.638;37.670;2022-12-29T06:16:06;-1.00;99.90
34201;DHT22;20469;55.638;37.670;2022-12-29T06:18:33;-0.90;99.90
34201;DHT22;20469;55.638;37.670;2022-12-29T06:21:01;-0.90;99.90
34201;DHT22;20469;55.638;37.670;2022-12-29T06:23:29;-0.80;99.90
34201;DHT22;20469;55.638;37.670;2022-12-29T06:25:56;-0.90;99.90
34201;DHT22;20469;55.638;37.670;2022-12-29T06:28:24;-0.90;99.90
34201;DHT22;20469;55.638;37.670;2022-12-29T06:30:51;-1.20;99.90
34201;DHT22;20469;55.638;37.670;2022-12-29T06:33:18;-1.20;99.90
34201;DHT22;20469;55.638;37.670;2022-12-29T06:35:46;-1.10;99.90
34201;DHT22;20469;55.638;37.670;2022-12-29T06:38:13;-1.40;99.90
34201;DHT22;20469;55.638;37.670;2022-12-29T06:40:42;-1.10;99.90
34201;DHT22;20469;55.638;37.670;2022-12-29T06:43:12;-0.90;99.90
34201;DHT22;20469;55.638;37.670;2022-12-29T06:45:39;-0.70;99.90
34201;DHT22;20469;55.638;37.670;2022-12-29T06:48:07;-1.20;99.90
34201;DHT22;20469;55.638;37.670;2022-12-29T06:50:35;-1.20;99.90
34201;DHT22;20469;55.638;37.670;2022-12-29T06:53:02;-1.00;99.90
34201;DHT22;20469;55.638;37.670;2022-12-29T06:55:29;-0.80;99.90
34201;DHT22;20469;55.638;37.670;2022-12-29T06:57:57;-0.90;99.90
34201;DHT22;20469;55.638;37.670;2022-12-29T07:00:25;-1.10;99.90
34201;DHT22;20469;55.638;37.670;2022-12-29T07:02:55;-1.10;99.90
34201;DHT22;20469;55.638;37.670;2022-12-29T07:05:23;-1.00;99.90
34201;DHT22;20469;55.638;37.670;2022-12-29T07:07:50;-1.20;99.90
34201;DHT22;20469;55.638;37.670;2022-12-29T07:10:17;-1.10;99.90
34201;DHT22;20469;55.638;37.670;2022-12-29T07:12:44;-1.10;99.90
34201;DHT22;20469;55.638;37.670;2022-12-29T07:15:11;-1.10;99.90
34201;DHT22;20469;55.638;37.670;2022-12-29T07:17:39;-1.00;99.90
34201;DHT22;20469;55.638;37.670;2022-12-29T07:20:07;-1.10;99.90
34201;DHT22;20469;55.638;37.670;2022-12-29T07:22:35;-0.90;99.90
34201;DHT22;20469;55.638;37.670;2022-12-29T07:25:02;-0.90;99.90
34201;DHT22;20469;55.638;37.670;2022-12-29T07:27:30;-1.30;99.90
34201;DHT22;20469;55.638;37.670;2022-12-29T07:29:57;-1.20;99.90
34201;DHT22;20469;55.638;37.670;2022-12-29T07:32:24;-1.30;99.90
34201;DHT22;20469;55.638;37.670;2022-12-29T07:34:51;-1.40;99.90
34201;DHT22;20469;55.638;37.670;2022-12-29T07:37:18;-1.40;99.90
34201;DHT22;20469;55.638;37.670;2022-12-29T07:39:46;-1.10;99.90
34201;DHT22;20469;55.638;37.670;2022-12-29T07:42:14;-1.10;99.90
34201;DHT22;20469;55.638;37.670;2022-12-29T07:44:41;-1.30;99.90
34201;DHT22;20469;55.638;37.670;2022-12-29T07:47:08;-1.00;99.90
34201;DHT22;20469;55.638;37.670;2022-12-29T07:49:35;-0.80;99.90
34201;DHT22;20469;55.638;37.670;2022-12-29T07:52:02;-0.90;99.90
34201;DHT22;20469;55.638;37.670;2022-12-29T07:54:29;-0.50;99.90
34201;DHT22;20469;55.638;37.670;2022-12-29T07:56:56;-0.90;99.90
34201;DHT22;20469;55.638;37.670;2022-12-29T07:59:26;-0.60;99.90
34201;DHT22;20469;55.638;37.670;2022-12-29T08:01:53;-0.90;99.90
34201;DHT22;20469;55.638;37.670;2022-12-29T08:04:21;-1.10;99.90
34201;DHT22;20469;55.638;37.670;2022-12-29T08:06:49;-0.80;99.90
34201;DHT22;20469;55.638;37.670;2022-12-29T08:09:17;-0.90;99.90
34201;DHT22;20469;55.638;37.670;2022-12-29T08:11:50;-1.10;99.90
34201;DHT22;20469;55.638;37.670;2022-12-29T08:14:17;-0.70;99.90
34201;DHT22;20469;55.638;37.670;2022-12-29T08:16:45;-0.60;99.90
34201;DHT22;20469;55.638;37.670;2022-12-29T08:19:12;-0.80;99.90
34201;DHT22;20469;55.638;37.670;2022-12-29T08:21:40;-0.80;99.90
34201;DHT22;20469;55.638;37.670;2022-12-29T08:24:08;-1.20;99.90
34201;DHT22;20469;55.638;37.670;2022-12-29T08:26:35;-0.80;99.90
34201;DHT22;20469;55.638;37.670;2022-12-29T08:29:02;-0.70;99.90
34201;DHT22;20469;55.638;37.670;2022-12-29T08:31:29;-0.70;99.90
34201;DHT22;20469;55.638;37.670;2022-12-29T08:33:57;-0.60;99.90
34201;DHT22;20469;55.638;37.670;2022-12-29T08:36:24;-0.30;99.90
34201;DHT22;20469;55.638;37.670;2022-12-29T08:38:52;-0.80;99.90
34201;DHT22;20469;55.638;37.670;2022-12-29T08:41:19;-0.80;99.90
34201;DHT22;20469;55.638;37.670;2022-12-29T08:43:47;-1.20;99.90
34201;DHT22;20469;55.638;37.670;2022-12-29T08:46:15;-1.30;99.90
34201;DHT22;20469;55.638;37.670;2022-12-29T08:48:42;-1.40;99.90
34201;DHT22;20469;55.638;37.670;2022-12-29T08:51:09;-1.30;99.90
34201;DHT22;20469;55.638;37.670;2022-12-29T08:53:36;-1.00;99.90
34201;DHT22;20469;55.638;37.670;2022-12-29T08:56:04;-0.60;99.90
34201;DHT22;20469;55.638;37.670;2022-12-29T08:58:31;-0.80;99.90
34201;DHT22;20469;55.638;37.670;2022-12-29T09:00:59;-1.20;99.90
34201;DHT22;20469;55.638;37.670;2022-12-29T09:03:26;-1.00;99.90
34201;DHT22;20469;55.638;37.670;2022-12-29T09:06:15;-1.00;99.90
34201;DHT22;20469;55.638;37.670;2022-12-29T09:08:44;-1.20;99.90
34201;DHT22;20469;55.638;37.670;2022-12-29T09:11:20;-1.30;99.90
34201;DHT22;20469;55.638;37.670;2022-12-29T09:13:47;-1.30;99.90
34201;DHT22;20469;55.638;37.670;2022-12-29T09:16:15;-0.50;99.90
34201;DHT22;20469;55.638;37.670;2022-12-29T09:18:43;-0.80;99.90
34201;DHT22;20469;55.638;37.670;2022-12-29T09:21:11;-0.70;99.90
34201;DHT22;20469;55.638;37.670;2022-12-29T09:23:39;-0.60;99.90
34201;DHT22;20469;55.638;37.670;2022-12-29T09:26:06;-0.40;99.90
34201;DHT22;20469;55.638;37.670;2022-12-29T09:28:34;0.20;99.90
34201;DHT22;20469;55.638;37.670;2022-12-29T09:31:02;0.60;99.90
34201;DHT22;20469;55.638;37.670;2022-12-29T09:33:29;0.70;99.90
34201;DHT22;20469;55.638;37.670;2022-12-29T09:35:58;1.00;99.90
34201;DHT22;20469;55.638;37.670;2022-12-29T09:38:26;0.90;99.90
34201;DHT22;20469;55.638;37.670;2022-12-29T09:48:48;-0.10;99.90
34201;DHT22;20469;55.638;37.670;2022-12-29T09:51:21;-0.10;99.90
34201;DHT22;20469;55.638;37.670;2022-12-29T09:54:00;0.20;99.90
34201;DHT22;20469;55.638;37.670;2022-12-29T09:56:29;0.50;99.90
34201;DHT22;20469;55.638;37.670;2022-12-29T09:59:01;0.80;99.90
34201;DHT22;20469;55.638;37.670;2022-12-29T10:01:51;0.60;99.90
34201;DHT22;20469;55.638;37.670;2022-12-29T10:04:19;0.10;99.90
34201;DHT22;20469;55.638;37.670;2022-12-29T10:06:50;-0.10;99.90
34201;DHT22;20469;55.638;37.670;2022-12-29T10:12:30;0.00;99.90
34201;DHT22;20469;55.638;37.670;2022-12-29T10:15:25;-0.20;99.90
34201;DHT22;20469;55.638;37.670;2022-12-29T10:23:39;-0.10;99.90
34201;DHT22;20469;55.638;37.670;2022-12-29T10:26:33;0.20;99.90
34201;DHT22;20469;55.638;37.670;2022-12-29T10:29:04;0.30;99.90
34201;DHT22;20469;55.638;37.670;2022-12-29T10:34:37;0.20;99.90
34201;DHT22;20469;55.638;37.670;2022-12-29T10:39:50;-0.40;99.90
34201;DHT22;20469;55.638;37.670;2022-12-29T10:42:26;0.00;99.90
34201;DHT22;20469;55.638;37.670;2022-12-29T10:44:55;-0.10;99.90
34201;DHT22;20469;55.638;37.670;2022-12-29T10:47:29;-0.50;99.90
34201;DHT22;20469;55.638;37.670;2022-12-29T10:49:58;-0.30;99.90
34201;DHT22;20469;55.638;37.670;2022-12-29T10:52:30;-0.60;99.90
34201;DHT22;20469;55.638;37.670;2022-12-29T10:55:04;-0.30;99.90
34201;DHT22;20469;55.638;37.670;2022-12-29T10:57:38;-0.20;99.90
34201;DHT22;20469;55.638;37.670;2022-12-29T11:00:17;0.00;99.90
34201;DHT22;20469;55.638;37.670;2022-12-29T11:06:01;0.10;99.90
34201;DHT22;20469;55.638;37.670;2022-12-29T11:08:36;-0.20;99.90
34201;DHT22;20469;55.638;37.670;2022-12-29T11:11:07;-0.30;99.90
34201;DHT22;20469;55.638;37.670;2022-12-29T11:13:47;-0.20;99.90
34201;DHT22;20469;55.638;37.670;2022-12-29T11:16:16;0.20;99.90
34201;DHT22;20469;55.638;37.670;2022-12-29T11:18:53;0.20;99.90
34201;DHT22;20469;55.638;37.670;2022-12-29T11:24:05;-0.30;99.90
34201;DHT22;20469;55.638;37.670;2022-12-29T11:26:33;0.10;99.90
34201;DHT22;20469;55.638;37.670;2022-12-29T11:31:48;-0.30;99.90
34201;DHT22;20469;55.638;37.670;2022-12-29T11:36:46;-0.30;99.90
34201;DHT22;20469;55.638;37.670;2022-12-29T11:39:28;0.10;99.90
34201;DHT22;20469;55.638;37.670;2022-12-29T11:41:56;0.20;99.90
34201;DHT22;20469;55.638;37.670;2022-12-29T11:44:25;-0.30;99.90
34201;DHT22;20469;55.638;37.670;2022-12-29T11:46:54;-0.20;99.90
34201;DHT22;20469;55.638;37.670;2022-12-29T11:49:26;0.00;99.90
34201;DHT22;20469;55.638;37.670;2022-12-29T11:51:54;-0.20;99.90
34201;DHT22;20469;55.638;37.670;2022-12-29T11:54:33;-0.40;99.90
34201;DHT22;20469;55.638;37.670;2022-12-29T11:57:14;-0.30;99.90
34201;DHT22;20469;55.638;37.670;2022-12-29T11:59:51;-0.30;99.90
34201;DHT22;20469;55.638;37.670;2022-12-29T12:02:38;-0.10;99.90
34201;DHT22;20469;55.638;37.670;2022-12-29T12:05:23;-0.10;99.90
34201;DHT22;20469;55.638;37.670;2022-12-29T12:08:28;-0.10;99.90
34201;DHT22;20469;55.638;37.670;2022-12-29T12:11:20;0.10;99.90
34201;DHT22;20469;55.638;37.670;2022-12-29T12:14:02;-0.10;99.90
34201;DHT22;20469;55.638;37.670;2022-12-29T12:16:41;0.00;99.90
34201;DHT22;20469;55.638;37.670;2022-12-29T12:19:23;-0.40;99.90
34201;DHT22;20469;55.638;37.670;2022-12-29T12:22:01;-0.30;99.90
34201;DHT22;20469;55.638;37.670;2022-12-29T12:24:49;-0.20;99.90
34201;DHT22;20469;55.638;37.670;2022-12-29T12:27:24;-0.30;99.90
34201;DHT22;20469;55.638;37.670;2022-12-29T12:35:15;-0.10;99.90
34201;DHT22;20469;55.638;37.670;2022-12-29T12:43:51;0.20;99.90
34201;DHT22;20469;55.638;37.670;2022-12-29T12:52:22;-0.50;99.90
34201;DHT22;20469;55.638;37.670;2022-12-29T13:00:18;-0.50;99.90
34201;DHT22;20469;55.638;37.670;2022-12-29T13:10:54;-0.40;99.90
34201;DHT22;20469;55.638;37.670;2022-12-29T13:16:53;-0.40;99.90
34201;DHT22;20469;55.638;37.670;2022-12-29T13:19:34;-0.40;99.90
34201;DHT22;20469;55.638;37.670;2022-12-29T13:22:33;-0.50;99.90
34201;DHT22;20469;55.638;37.670;2022-12-29T13:36:53;-0.40;99.90
34201;DHT22;20469;55.638;37.670;2022-12-29T13:39:35;-0.40;99.90
34201;DHT22;20469;55.638;37.670;2022-12-29T13:42:05;-0.40;99.90
34201;DHT22;20469;55.638;37.670;2022-12-29T13:44:50;-0.30;99.90
34201;DHT22;20469;55.638;37.670;2022-12-29T13:47:37;-0.30;99.90
34201;DHT22;20469;55.638;37.670;2022-12-29T13:50:12;-0.20;99.90
34201;DHT22;20469;55.638;37.670;2022-12-29T13:58:14;-0.20;99.90
34201;DHT22;20469;55.638;37.670;2022-12-29T14:03:27;-0.40;99.90
34201;DHT22;20469;55.638;37.670;2022-12-29T14:06:15;-0.50;99.90
34201;DHT22;20469;55.638;37.670;2022-12-29T14:08:43;-0.40;99.90
34201;DHT22;20469;55.638;37.670;2022-12-29T14:11:14;-0.50;99.90
34201;DHT22;20469;55.638;37.670;2022-12-29T14:13:45;-0.40;99.90
34201;DHT22;20469;55.638;37.670;2022-12-29T14:16:28;-0.20;99.90
34201;DHT22;20469;55.638;37.670;2022-12-29T14:19:04;-0.30;99.90
34201;DHT22;20469;55.638;37.670;2022-12-29T14:21:32;-0.10;99.90
34201;DHT22;20469;55.638;37.670;2022-12-29T14:42:51;-0.60;99.90
34201;DHT22;20469;55.638;37.670;2022-12-29T14:47:48;-0.80;99.90
34201;DHT22;20469;55.638;37.670;2022-12-29T14:52:59;-0.90;99.90
34201;DHT22;20469;55.638;37.670;2022-12-29T14:58:06;-0.80;99.90
34201;DHT22;20469;55.638;37.670;2022-12-29T15:00:39;-0.80;99.90
34201;DHT22;20469;55.638;37.670;2022-12-29T15:05:52;-0.80;99.90
34201;DHT22;20469;55.638;37.670;2022-12-29T15:08:25;-0.80;99.90
34201;DHT22;20469;55.638;37.670;2022-12-29T15:11:12;-0.80;99.90
34201;DHT22;20469;55.638;37.670;2022-12-29T15:13:42;-0.80;99.90
34201;DHT22;20469;55.638;37.670;2022-12-29T15:16:34;-0.90;99.90
34201;DHT22;20469;55.638;37.670;2022-12-29T15:19:03;-0.90;99.90
34201;DHT22;20469;55.638;37.670;2022-12-29T15:21:34;-0.90;99.90
34201;DHT22;20469;55.638;37.670;2022-12-29T15:24:05;-0.90;99.90
34201;DHT22;20469;55.638;37.670;2022-12-29T15:26:38;-0.80;99.90
34201;DHT22;20469;55.638;37.670;2022-12-29T15:29:27;-0.60;99.90
34201;DHT22;20469;55.638;37.670;2022-12-29T15:31:52;-0.60;99.90
34201;DHT22;20469;55.638;37.670;2022-12-29T15:34:21;-0.50;99.90
34201;DHT22;20469;55.638;37.670;2022-12-29T15:36:50;-0.30;99.90
34201;DHT22;20469;55.638;37.670;2022-12-29T15:39:28;-0.50;99.90
34201;DHT22;20469;55.638;37.670;2022-12-29T15:42:02;-0.40;99.90
34201;DHT22;20469;55.638;37.670;2022-12-29T15:44:42;-0.30;99.90
34201;DHT22;20469;55.638;37.670;2022-12-29T15:47:21;0.00;99.90
34201;DHT22;20469;55.638;37.670;2022-12-29T15:49:50;-0.10;99.90
34201;DHT22;20469;55.638;37.670;2022-12-29T15:52:21;-0.10;99.90
34201;DHT22;20469;55.638;37.670;2022-12-29T15:54:51;-0.20;99.90
34201;DHT22;20469;55.638;37.670;2022-12-29T15:57:42;-0.30;99.90
34201;DHT22;20469;55.638;37.670;2022-12-29T16:00:45;-0.10;99.90
34201;DHT22;20469;55.638;37.670;2022-12-29T16:03:14;0.00;99.90
34201;DHT22;20469;55.638;37.670;2022-12-29T16:05:53;-0.20;99.90
34201;DHT22;20469;55.638;37.670;2022-12-29T16:08:32;-0.20;99.90
34201;DHT22;20469;55.638;37.670;2022-12-29T16:11:01;-0.30;99.90
34201;DHT22;20469;55.638;37.670;2022-12-29T16:16:30;-0.40;99.90
34201;DHT22;20469;55.638;37.670;2022-12-29T16:19:09;-0.30;99.90
34201;DHT22;20469;55.638;37.670;2022-12-29T16:21:37;-0.40;99.90
34201;DHT22;20469;55.638;37.670;2022-12-29T16:24:16;-0.40;99.90
34201;DHT22;20469;55.638;37.670;2022-12-29T16:26:56;-0.40;99.90
34201;DHT22;20469;55.638;37.670;2022-12-29T16:29:26;-0.40;99.90
34201;DHT22;20469;55.638;37.670;2022-12-29T16:31:57;-0.50;99.90
34201;DHT22;20469;55.638;37.670;2022-12-29T16:37:04;-0.60;99.90
34201;DHT22;20469;55.638;37.670;2022-12-29T16:39:36;-0.70;99.90
34201;DHT22;20469;55.638;37.670;2022-12-29T16:48:20;-0.60;99.90
34201;DHT22;20469;55.638;37.670;2022-12-29T16:50:49;-0.60;99.90
34201;DHT22;20469;55.638;37.670;2022-12-29T16:53:25;-0.70;99.90
34201;DHT22;20469;55.638;37.670;2022-12-29T16:55:54;-0.80;99.90
34201;DHT22;20469;55.638;37.670;2022-12-29T16:58:27;-0.80;99.90
34201;DHT22;20469;55.638;37.670;2022-12-29T17:00:59;-0.80;99.90
34201;DHT22;20469;55.638;37.670;2022-12-29T17:03:37;-0.80;99.90
34201;DHT22;20469;55.638;37.670;2022-12-29T17:06:08;-0.70;99.90
34201;DHT22;20469;55.638;37.670;2022-12-29T17:08:41;-0.70;99.90
34201;DHT22;20469;55.638;37.670;2022-12-29T17:11:33;-0.80;99.90
34201;DHT22;20469;55.638;37.670;2022-12-29T17:14:56;-0.90;99.90
34201;DHT22;20469;55.638;37.670;2022-12-29T17:17:40;-0.90;99.90
34201;DHT22;20469;55.638;37.670;2022-12-29T17:20:21;-0.90;99.90
34201;DHT22;20469;55.638;37.670;2022-12-29T17:22:50;-0.90;99.90
34201;DHT22;20469;55.638;37.670;2022-12-29T17:25:32;-0.90;99.90
34201;DHT22;20469;55.638;37.670;2022-12-29T17:28:04;-0.90;99.90
34201;DHT22;20469;55.638;37.670;2022-12-29T17:30:32;-0.90;99.90
34201;DHT22;20469;55.638;37.670;2022-12-29T17:33:05;-0.90;99.90
34201;DHT22;20469;55.638;37.670;2022-12-29T17:35:32;-0.90;99.90
34201;DHT22;20469;55.638;37.670;2022-12-29T17:38:00;-0.90;99.90
34201;DHT22;20469;55.638;37.670;2022-12-29T17:40:29;-0.90;99.90
34201;DHT22;20469;55.638;37.670;2022-12-29T17:42:58;-1.00;99.90
34201;DHT22;20469;55.638;37.670;2022-12-29T17:45:28;-1.00;99.90
34201;DHT22;20469;55.638;37.670;2022-12-29T17:47:57;-1.00;99.90
34201;DHT22;20469;55.638;37.670;2022-12-29T17:50:29;-1.00;99.90
34201;DHT22;20469;55.638;37.670;2022-12-29T17:53:05;-0.90;99.90
34201;DHT22;20469;55.638;37.670;2022-12-29T17:55:33;-1.00;99.90
34201;DHT22;20469;55.638;37.670;2022-12-29T17:58:21;-1.10;99.90
34201;DHT22;20469;55.638;37.670;2022-12-29T18:00:51;-1.00;99.90
34201;DHT22;20469;55.638;37.670;2022-12-29T18:03:25;-1.00;99.90
34201;DHT22;20469;55.638;37.670;2022-12-29T18:05:54;-0.90;99.90
34201;DHT22;20469;55.638;37.670;2022-12-29T18:08:21;-1.00;99.90
34201;DHT22;20469;55.638;37.670;2022-12-29T18:10:53;-1.10;99.90
34201;DHT22;20469;55.638;37.670;2022-12-29T18:13:24;-1.10;99.90
34201;DHT22;20469;55.638;37.670;2022-12-29T18:16:01;-1.10;99.90
34201;DHT22;20469;55.638;37.670;2022-12-29T18:18:29;-1.00;99.90
34201;DHT22;20469;55.638;37.670;2022-12-29T18:20:59;-1.00;99.90
34201;DHT22;20469;55.638;37.670;2022-12-29T18:23:32;-1.00;99.90
34201;DHT22;20469;55.638;37.670;2022-12-29T18:26:12;-1.00;99.90
34201;DHT22;20469;55.638;37.670;2022-12-29T18:28:41;-1.00;99.90
34201;DHT22;20469;55.638;37.670;2022-12-29T18:31:21;-1.00;99.90
34201;DHT22;20469;55.638;37.670;2022-12-29T18:33:49;-1.00;99.90
34201;DHT22;20469;55.638;37.670;2022-12-29T18:36:17;-1.00;99.90